createdAt,value
2018-06-03T00:00:52.142Z,1013.74
2018-06-03T00:02:45.754Z,1013.70
2018-06-03T00:03:45.774Z,1013.74
2018-06-03T00:05:39.399Z,1013.70
2018-06-03T00:06:39.281Z,1013.71
2018-06-03T00:08:32.859Z,1013.68
2018-06-03T00:09:32.882Z,1013.69
2018-06-03T00:11:26.563Z,1013.65
2018-06-03T00:12:26.422Z,1013.66
2018-06-03T00:14:20.073Z,1013.66
2018-06-03T00:15:20.098Z,1013.66
2018-06-03T00:17:14.104Z,1013.68
2018-06-03T00:18:13.669Z,1013.66
2018-06-03T00:20:07.216Z,1013.64
2018-06-03T00:21:07.239Z,1013.66
2018-06-03T00:23:00.789Z,1013.61
2018-06-03T00:24:00.809Z,1013.60
2018-06-03T00:25:58.817Z,1013.57
2018-06-03T00:26:58.475Z,1013.57
2018-06-03T00:28:52.022Z,1013.57
2018-06-03T00:29:52.046Z,1013.57
2018-06-03T00:31:45.594Z,1013.55
2018-06-03T00:32:45.617Z,1013.54
2018-06-03T00:34:39.166Z,1013.57
2018-06-03T00:35:39.189Z,1013.60
2018-06-03T00:37:32.735Z,1013.57
2018-06-03T00:38:32.759Z,1013.55
2018-06-03T00:40:26.313Z,1013.52
2018-06-03T00:41:26.331Z,1013.54
2018-06-03T00:43:19.873Z,1013.56
2018-06-03T00:44:19.898Z,1013.51
2018-06-03T00:46:13.448Z,1013.55
2018-06-03T00:47:13.469Z,1013.57
2018-06-03T00:49:07.073Z,1013.54
2018-06-03T00:50:07.054Z,1013.52
2018-06-03T00:52:00.672Z,1013.56
2018-06-03T00:53:00.609Z,1013.54
2018-06-03T00:54:54.158Z,1013.54
2018-06-03T00:55:54.179Z,1013.52
2018-06-03T00:57:47.730Z,1013.52
2018-06-03T00:58:47.753Z,1013.54
2018-06-03T01:00:41.299Z,1013.50
2018-06-03T01:01:41.324Z,1013.49
2018-06-03T01:03:46.543Z,1013.48
2018-06-03T01:04:46.571Z,1013.48
2018-06-03T01:06:40.118Z,1013.48
2018-06-03T01:07:40.136Z,1013.48
2018-06-03T01:09:33.683Z,1013.49
2018-06-03T01:10:33.705Z,1013.49
2018-06-03T01:12:27.253Z,1013.50
2018-06-03T01:13:27.277Z,1013.48
2018-06-03T01:15:20.825Z,1013.45
2018-06-03T01:16:20.859Z,1013.44
2018-06-03T01:18:14.396Z,1013.41
2018-06-03T01:19:14.417Z,1013.42
2018-06-03T01:21:07.988Z,1013.40
2018-06-03T01:22:07.988Z,1013.38
2018-06-03T01:24:01.537Z,1013.42
2018-06-03T01:25:01.558Z,1013.41
2018-06-03T01:26:55.106Z,1013.43
2018-06-03T01:27:55.130Z,1013.39
2018-06-03T01:29:48.679Z,1013.40
2018-06-03T01:30:48.700Z,1013.36
2018-06-03T01:32:42.248Z,1013.37
2018-06-03T01:33:42.271Z,1013.42
2018-06-03T01:35:35.817Z,1013.39
2018-06-03T01:36:35.840Z,1013.37
2018-06-03T01:38:29.387Z,1013.39
2018-06-03T01:39:29.410Z,1013.39
2018-06-03T01:41:22.959Z,1013.36
2018-06-03T01:42:22.981Z,1013.39
2018-06-03T01:44:16.532Z,1013.38
2018-06-03T01:45:16.552Z,1013.39
2018-06-03T01:47:10.100Z,1013.34
2018-06-03T01:48:10.123Z,1013.37
2018-06-03T01:50:03.670Z,1013.37
2018-06-03T01:51:03.692Z,1013.36
2018-06-03T01:52:57.243Z,1013.33
2018-06-03T01:53:57.263Z,1013.31
2018-06-03T01:55:51.269Z,1013.30
2018-06-03T01:56:50.833Z,1013.25
2018-06-03T01:58:44.380Z,1013.26
2018-06-03T01:59:44.404Z,1013.28
2018-06-03T02:01:37.976Z,1013.25
2018-06-03T02:02:38.003Z,1013.24
2018-06-03T02:04:31.522Z,1013.24
2018-06-03T02:05:31.544Z,1013.20
2018-06-03T02:07:25.096Z,1013.23
2018-06-03T02:08:25.115Z,1013.21
2018-06-03T02:10:18.664Z,1013.19
2018-06-03T02:11:18.689Z,1013.16
2018-06-03T02:13:12.233Z,1013.16
2018-06-03T02:14:12.255Z,1013.20
2018-06-03T02:16:05.807Z,1013.15
2018-06-03T02:17:05.828Z,1013.17
2018-06-03T02:18:59.374Z,1013.19
2018-06-03T02:19:59.398Z,1013.15
2018-06-03T02:21:52.945Z,1013.16
2018-06-03T02:22:52.967Z,1013.13
2018-06-03T02:24:46.515Z,1013.12
2018-06-03T02:25:46.539Z,1013.12
2018-06-03T02:27:40.086Z,1013.12
2018-06-03T02:28:40.111Z,1013.12
2018-06-03T02:30:33.662Z,1013.10
2018-06-03T02:31:33.680Z,1013.10
2018-06-03T02:33:27.228Z,1013.07
2018-06-03T02:34:27.263Z,1013.09
2018-06-03T02:36:20.796Z,1013.13
2018-06-03T02:37:20.820Z,1013.07
2018-06-03T02:39:14.368Z,1013.07
2018-06-03T02:40:14.392Z,1013.07
2018-06-03T02:42:07.970Z,1013.10
2018-06-03T02:43:07.975Z,1013.05
2018-06-03T02:45:01.513Z,1013.07
2018-06-03T02:46:01.532Z,1013.08
2018-06-03T02:47:55.080Z,1013.07
2018-06-03T02:48:55.107Z,1013.04
2018-06-03T02:50:48.647Z,1013.07
2018-06-03T02:51:48.674Z,1013.03
2018-06-03T02:53:42.219Z,1013.05
2018-06-03T02:54:42.243Z,1013.05
2018-06-03T02:56:35.789Z,1013.03
2018-06-03T02:57:35.813Z,1013.03
2018-06-03T02:59:29.365Z,1012.99
2018-06-03T03:00:29.384Z,1013.01
2018-06-03T03:02:22.932Z,1013.04
2018-06-03T03:03:22.954Z,1013.05
2018-06-03T03:05:16.500Z,1013.02
2018-06-03T03:06:16.524Z,1012.97
2018-06-03T03:08:10.072Z,1012.96
2018-06-03T03:09:10.097Z,1012.98
2018-06-03T03:11:03.645Z,1012.99
2018-06-03T03:12:03.666Z,1012.99
2018-06-03T03:13:57.212Z,1013.01
2018-06-03T03:14:57.237Z,1012.99
2018-06-03T03:16:50.791Z,1012.97
2018-06-03T03:17:50.807Z,1013.03
2018-06-03T03:19:44.362Z,1013.03
2018-06-03T03:20:44.378Z,1013.04
2018-06-03T03:22:37.951Z,1013.04
2018-06-03T03:23:37.952Z,1013.07
2018-06-03T03:25:31.493Z,1013.09
2018-06-03T03:26:31.518Z,1013.08
2018-06-03T03:28:25.072Z,1013.10
2018-06-03T03:29:25.090Z,1013.09
2018-06-03T03:31:18.636Z,1013.09
2018-06-03T03:32:18.659Z,1013.10
2018-06-03T03:34:12.207Z,1013.08
2018-06-03T03:35:12.229Z,1013.09
2018-06-03T03:37:05.777Z,1013.10
2018-06-03T03:38:05.799Z,1013.09
2018-06-03T03:39:59.356Z,1013.04
2018-06-03T03:40:59.370Z,1013.06
2018-06-03T03:42:52.917Z,1013.07
2018-06-03T03:43:52.940Z,1013.06
2018-06-03T03:45:46.488Z,1013.07
2018-06-03T03:46:46.512Z,1013.05
2018-06-03T03:48:40.061Z,1013.08
2018-06-03T03:49:40.082Z,1013.12
2018-06-03T03:51:33.630Z,1013.16
2018-06-03T03:52:33.655Z,1013.12
2018-06-03T03:54:27.202Z,1013.13
2018-06-03T03:55:27.224Z,1013.14
2018-06-03T03:57:20.771Z,1013.14
2018-06-03T03:58:20.793Z,1013.10
2018-06-03T04:00:14.341Z,1013.13
2018-06-03T04:01:14.365Z,1013.12
2018-06-03T04:03:07.913Z,1013.13
2018-06-03T04:04:07.933Z,1013.17
2018-06-03T04:06:01.483Z,1013.17
2018-06-03T04:07:01.505Z,1013.16
2018-06-03T04:08:55.052Z,1013.15
2018-06-03T04:09:55.073Z,1013.14
2018-06-03T04:11:48.622Z,1013.12
2018-06-03T04:12:48.646Z,1013.11
2018-06-03T04:14:42.192Z,1013.11
2018-06-03T04:15:42.214Z,1013.11
2018-06-03T04:17:35.764Z,1013.06
2018-06-03T04:18:35.788Z,1013.07
2018-06-03T04:20:29.334Z,1013.11
2018-06-03T04:21:29.356Z,1013.06
2018-06-03T04:23:22.902Z,1013.06
2018-06-03T04:24:22.926Z,1013.07
2018-06-03T04:26:16.474Z,1013.04
2018-06-03T04:27:16.497Z,1013.04
2018-06-03T04:29:10.046Z,1013.07
2018-06-03T04:30:10.070Z,1013.10
2018-06-03T04:32:03.616Z,1013.10
2018-06-03T04:33:03.639Z,1013.11
2018-06-03T04:34:57.185Z,1013.11
2018-06-03T04:35:57.209Z,1013.15
2018-06-03T04:37:50.760Z,1013.18
2018-06-03T04:38:50.780Z,1013.14
2018-06-03T04:40:44.327Z,1013.19
2018-06-03T04:41:44.350Z,1013.20
2018-06-03T04:43:37.896Z,1013.21
2018-06-03T04:44:37.920Z,1013.20
2018-06-03T04:46:31.469Z,1013.21
2018-06-03T04:47:31.491Z,1013.23
2018-06-03T04:49:25.043Z,1013.24
2018-06-03T04:50:25.061Z,1013.21
2018-06-03T04:52:18.546Z,1013.23
2018-06-03T04:53:18.567Z,1013.27
2018-06-03T04:55:12.048Z,1013.22
2018-06-03T04:56:12.077Z,1013.26
2018-06-03T04:58:05.647Z,1013.26
2018-06-03T04:59:05.672Z,1013.30
2018-06-03T05:00:59.150Z,1013.31
2018-06-03T05:01:59.174Z,1013.34
2018-06-03T05:03:52.655Z,1013.34
2018-06-03T05:04:52.676Z,1013.32
2018-06-03T05:06:46.156Z,1013.32
2018-06-03T05:07:46.180Z,1013.34
2018-06-03T05:09:39.651Z,1013.38
2018-06-03T05:10:39.673Z,1013.38
2018-06-03T05:12:33.154Z,1013.42
2018-06-03T05:13:33.177Z,1013.43
2018-06-03T05:15:26.661Z,1013.44
2018-06-03T05:16:26.684Z,1013.48
2018-06-03T05:18:20.164Z,1013.46
2018-06-03T05:19:20.188Z,1013.45
2018-06-03T05:21:17.777Z,1013.44
2018-06-03T05:22:17.799Z,1013.45
2018-06-03T05:24:11.365Z,1013.44
2018-06-03T05:25:11.389Z,1013.46
2018-06-03T05:27:04.942Z,1013.49
2018-06-03T05:28:04.959Z,1013.51
2018-06-03T05:29:58.622Z,1013.49
2018-06-03T05:30:58.455Z,1013.54
2018-06-03T05:32:51.443Z,1013.55
2018-06-03T05:33:51.466Z,1013.59
2018-06-03T05:35:44.999Z,1013.57
2018-06-03T05:36:44.999Z,1013.56
2018-06-03T05:38:38.482Z,1013.59
2018-06-03T05:39:38.504Z,1013.59
2018-06-03T05:41:32.485Z,1013.58
2018-06-03T05:42:32.359Z,1013.63
2018-06-03T05:44:25.781Z,1013.64
2018-06-03T05:45:25.804Z,1013.64
2018-06-03T05:47:19.291Z,1013.63
2018-06-03T05:48:19.307Z,1013.64
2018-06-03T05:50:12.886Z,1013.62
2018-06-03T05:51:12.907Z,1013.64
2018-06-03T05:53:06.384Z,1013.65
2018-06-03T05:54:06.402Z,1013.67
2018-06-03T05:56:00.407Z,1013.65
2018-06-03T05:56:59.905Z,1013.65
2018-06-03T05:58:53.377Z,1013.65
2018-06-03T05:59:53.400Z,1013.65
2018-06-03T06:01:46.881Z,1013.70
2018-06-03T06:02:46.904Z,1013.69
2018-06-03T06:04:40.385Z,1013.69
2018-06-03T06:05:40.407Z,1013.71
2018-06-03T06:07:33.890Z,1013.72
2018-06-03T06:08:33.912Z,1013.70
2018-06-03T06:10:27.390Z,1013.74
2018-06-03T06:11:27.413Z,1013.76
2018-06-03T06:13:20.894Z,1013.75
2018-06-03T06:14:20.915Z,1013.73
2018-06-03T06:16:14.396Z,1013.72
2018-06-03T06:17:14.420Z,1013.75
2018-06-03T06:19:08.112Z,1013.76
2018-06-03T06:20:08.035Z,1013.74
2018-06-03T06:22:01.546Z,1013.71
2018-06-03T06:23:01.570Z,1013.76
2018-06-03T06:24:55.118Z,1013.75
2018-06-03T06:25:55.139Z,1013.77
2018-06-03T06:27:48.625Z,1013.75
2018-06-03T06:28:48.652Z,1013.72
2018-06-03T06:30:42.124Z,1013.77
2018-06-03T06:31:42.146Z,1013.79
2018-06-03T06:33:39.647Z,1013.80
2018-06-03T06:34:39.671Z,1013.79
2018-06-03T06:36:33.140Z,1013.77
2018-06-03T06:37:33.163Z,1013.79
2018-06-03T06:39:26.747Z,1013.82
2018-06-03T06:40:26.668Z,1013.81
2018-06-03T06:42:20.234Z,1013.78
2018-06-03T06:43:20.257Z,1013.78
2018-06-03T06:45:13.797Z,1013.82
2018-06-03T06:46:13.762Z,1013.82
2018-06-03T06:48:07.242Z,1013.81
2018-06-03T06:49:07.268Z,1013.85
2018-06-03T06:51:00.768Z,1013.83
2018-06-03T06:52:00.770Z,1013.83
2018-06-03T06:53:54.250Z,1013.80
2018-06-03T06:54:54.273Z,1013.75
2018-06-03T06:56:47.754Z,1013.79
2018-06-03T06:57:47.777Z,1013.80
2018-06-03T06:59:41.531Z,1013.81
2018-06-03T07:00:41.705Z,1013.81
2018-06-03T07:02:34.544Z,1013.80
2018-06-03T07:03:34.566Z,1013.81
2018-06-03T07:05:29.178Z,1013.77
2018-06-03T07:06:29.136Z,1013.78
2018-06-03T07:08:22.614Z,1013.76
2018-06-03T07:09:22.637Z,1013.77
2018-06-03T07:11:16.111Z,1013.77
2018-06-03T07:12:16.224Z,1013.77
2018-06-03T07:14:09.698Z,1013.77
2018-06-03T07:15:09.720Z,1013.73
2018-06-03T07:17:02.826Z,1013.76
2018-06-03T07:18:02.946Z,1013.70
2018-06-03T07:19:56.393Z,1013.74
2018-06-03T07:20:56.354Z,1013.72
2018-06-03T07:22:49.836Z,1013.75
2018-06-03T07:23:50.009Z,1013.75
2018-06-03T07:25:44.969Z,1013.72
2018-06-03T07:26:44.789Z,1013.72
2018-06-03T07:28:40.378Z,1013.74
2018-06-03T07:29:39.717Z,1013.77
2018-06-03T07:31:38.606Z,1013.75
2018-06-03T07:32:38.522Z,1013.76
2018-06-03T07:34:33.471Z,1013.78
2018-06-03T07:35:33.298Z,1013.78
2018-06-03T07:37:27.193Z,1013.77
2018-06-03T07:38:27.006Z,1013.77
2018-06-03T07:40:20.490Z,1013.77
2018-06-03T07:41:20.511Z,1013.78
2018-06-03T07:43:13.996Z,1013.76
2018-06-03T07:44:14.015Z,1013.77
2018-06-03T07:46:07.497Z,1013.76
2018-06-03T07:47:07.519Z,1013.76
2018-06-03T07:49:01.002Z,1013.78
2018-06-03T07:50:01.024Z,1013.74
2018-06-03T07:51:54.506Z,1013.73
2018-06-03T07:52:54.527Z,1013.77
2018-06-03T07:54:48.008Z,1013.70
2018-06-03T07:55:48.029Z,1013.73
2018-06-03T07:57:41.508Z,1013.72
2018-06-03T07:58:41.532Z,1013.74
2018-06-03T08:00:35.012Z,1013.71
2018-06-03T08:01:35.035Z,1013.70
2018-06-03T08:03:28.516Z,1013.74
2018-06-03T08:04:28.537Z,1013.71
2018-06-03T08:06:22.019Z,1013.74
2018-06-03T08:07:22.041Z,1013.72
2018-06-03T08:09:15.522Z,1013.72
2018-06-03T08:10:15.544Z,1013.72
2018-06-03T08:12:09.026Z,1013.70
2018-06-03T08:13:09.048Z,1013.70
2018-06-03T08:15:02.532Z,1013.64
2018-06-03T08:16:02.550Z,1013.67
2018-06-03T08:17:56.034Z,1013.67
2018-06-03T08:18:56.057Z,1013.65
2018-06-03T08:20:49.543Z,1013.64
2018-06-03T08:21:49.559Z,1013.66
2018-06-03T08:23:43.043Z,1013.66
2018-06-03T08:24:43.065Z,1013.61
2018-06-03T08:26:36.543Z,1013.66
2018-06-03T08:27:36.569Z,1013.66
2018-06-03T08:29:30.047Z,1013.68
2018-06-03T08:30:30.068Z,1013.69
2018-06-03T08:32:23.060Z,1013.68
2018-06-03T08:33:23.087Z,1013.68
2018-06-03T08:35:16.564Z,1013.65
2018-06-03T08:36:16.588Z,1013.65
2018-06-03T08:38:10.070Z,1013.66
2018-06-03T08:39:10.104Z,1013.63
2018-06-03T08:41:04.098Z,1013.68
2018-06-03T08:42:03.595Z,1013.69
2018-06-03T08:43:57.074Z,1013.68
2018-06-03T08:44:57.102Z,1013.66
2018-06-03T08:46:50.571Z,1013.67
2018-06-03T08:47:50.592Z,1013.66
2018-06-03T08:49:44.074Z,1013.63
2018-06-03T08:50:44.097Z,1013.69
2018-06-03T08:52:37.577Z,1013.67
2018-06-03T08:53:37.600Z,1013.70
2018-06-03T08:55:31.081Z,1013.68
2018-06-03T08:56:31.103Z,1013.64
2018-06-03T08:58:24.587Z,1013.61
2018-06-03T08:59:24.609Z,1013.61
2018-06-03T09:01:18.087Z,1013.57
2018-06-03T09:02:18.111Z,1013.55
2018-06-03T09:04:11.592Z,1013.56
2018-06-03T09:05:11.614Z,1013.59
2018-06-03T09:07:05.105Z,1013.58
2018-06-03T09:08:05.123Z,1013.55
2018-06-03T09:09:58.601Z,1013.54
2018-06-03T09:10:58.625Z,1013.56
2018-06-03T09:12:52.107Z,1013.54
2018-06-03T09:13:52.131Z,1013.49
2018-06-03T09:15:45.610Z,1013.51
2018-06-03T09:16:45.632Z,1013.45
2018-06-03T09:18:39.103Z,1013.52
2018-06-03T09:19:39.133Z,1013.46
2018-06-03T09:21:32.609Z,1013.48
2018-06-03T09:22:32.629Z,1013.47
2018-06-03T09:24:26.115Z,1013.46
2018-06-03T09:25:26.137Z,1013.40
2018-06-03T09:27:19.608Z,1013.43
2018-06-03T09:28:19.630Z,1013.38
2018-06-03T09:30:13.112Z,1013.42
2018-06-03T09:31:13.136Z,1013.45
2018-06-03T09:33:06.620Z,1013.49
2018-06-03T09:34:06.642Z,1013.47
2018-06-03T09:36:00.647Z,1013.42
2018-06-03T09:37:00.145Z,1013.42
2018-06-03T09:38:53.616Z,1013.40
2018-06-03T09:39:53.640Z,1013.40
2018-06-03T09:41:47.125Z,1013.37
2018-06-03T09:42:47.146Z,1013.40
2018-06-03T09:44:40.643Z,1013.37
2018-06-03T09:45:40.649Z,1013.35
2018-06-03T09:47:34.132Z,1013.35
2018-06-03T09:48:34.154Z,1013.36
2018-06-03T09:50:27.624Z,1013.33
2018-06-03T09:51:27.646Z,1013.36
2018-06-03T09:53:21.160Z,1013.34
2018-06-03T09:54:21.154Z,1013.30
2018-06-03T09:56:14.632Z,1013.31
2018-06-03T09:57:14.656Z,1013.33
2018-06-03T09:59:08.131Z,1013.27
2018-06-03T10:00:08.152Z,1013.22
2018-06-03T10:02:01.621Z,1013.29
2018-06-03T10:03:01.644Z,1013.26
2018-06-03T10:04:55.126Z,1013.26
2018-06-03T10:05:55.149Z,1013.26
2018-06-03T10:07:48.632Z,1013.27
2018-06-03T10:08:48.652Z,1013.27
2018-06-03T10:10:42.125Z,1013.26
2018-06-03T10:11:42.149Z,1013.26
2018-06-03T10:13:35.636Z,1013.24
2018-06-03T10:14:35.653Z,1013.27
2018-06-03T10:16:29.135Z,1013.23
2018-06-03T10:17:29.157Z,1013.24
2018-06-03T10:19:22.641Z,1013.14
2018-06-03T10:20:22.661Z,1013.18
2018-06-03T10:22:16.140Z,1013.20
2018-06-03T10:23:16.167Z,1013.21
2018-06-03T10:25:09.655Z,1013.17
2018-06-03T10:26:09.672Z,1013.17
2018-06-03T10:28:03.154Z,1013.20
2018-06-03T10:29:03.176Z,1013.16
2018-06-03T10:30:57.183Z,1013.14
2018-06-03T10:31:56.677Z,1013.13
2018-06-03T10:33:50.153Z,1013.14
2018-06-03T10:34:50.171Z,1013.11
2018-06-03T10:36:43.656Z,1013.10
2018-06-03T10:37:43.679Z,1013.11
2018-06-03T10:39:37.157Z,1013.10
2018-06-03T10:40:37.179Z,1013.14
2018-06-03T10:42:30.663Z,1013.09
2018-06-03T10:43:30.684Z,1013.06
2018-06-03T10:45:24.165Z,1013.09
2018-06-03T10:46:24.186Z,1013.04
2018-06-03T10:48:17.672Z,1013.02
2018-06-03T10:49:17.691Z,1013.01
2018-06-03T10:51:11.175Z,1012.99
2018-06-03T10:52:11.200Z,1012.98
2018-06-03T10:54:04.687Z,1012.97
2018-06-03T10:55:04.706Z,1012.98
2018-06-03T10:56:58.183Z,1013.00
2018-06-03T10:57:58.206Z,1012.98
2018-06-03T10:59:51.698Z,1012.98
2018-06-03T11:00:51.710Z,1012.96
2018-06-03T11:02:45.191Z,1012.93
2018-06-03T11:03:45.215Z,1012.95
2018-06-03T11:05:38.735Z,1012.92
2018-06-03T11:06:38.708Z,1012.91
2018-06-03T11:08:32.195Z,1012.90
2018-06-03T11:09:32.217Z,1012.89
2018-06-03T11:11:25.699Z,1012.87
2018-06-03T11:12:25.718Z,1012.87
2018-06-03T11:14:19.200Z,1012.87
2018-06-03T11:15:19.225Z,1012.89
2018-06-03T11:17:12.706Z,1012.88
2018-06-03T11:18:12.729Z,1012.88
2018-06-03T11:20:06.209Z,1012.89
2018-06-03T11:21:06.232Z,1012.87
2018-06-03T11:22:59.714Z,1012.82
2018-06-03T11:23:59.740Z,1012.81
2018-06-03T11:25:53.742Z,1012.85
2018-06-03T11:26:53.241Z,1012.83
2018-06-03T11:28:46.722Z,1012.80
2018-06-03T11:29:46.745Z,1012.77
2018-06-03T11:31:40.228Z,1012.80
2018-06-03T11:32:40.249Z,1012.77
2018-06-03T11:34:33.732Z,1012.81
2018-06-03T11:35:33.752Z,1012.86
2018-06-03T11:37:27.237Z,1012.82
2018-06-03T11:38:27.260Z,1012.81
2018-06-03T11:40:20.742Z,1012.81
2018-06-03T11:41:20.765Z,1012.75
2018-06-03T11:43:14.242Z,1012.76
2018-06-03T11:44:14.264Z,1012.74
2018-06-03T11:46:07.751Z,1012.75
2018-06-03T11:47:07.769Z,1012.72
2018-06-03T11:49:01.256Z,1012.73
2018-06-03T11:50:01.278Z,1012.74
2018-06-03T11:51:54.760Z,1012.70
2018-06-03T11:52:54.782Z,1012.68
2018-06-03T11:54:48.265Z,1012.72
2018-06-03T11:55:48.293Z,1012.71
2018-06-03T11:57:41.758Z,1012.68
2018-06-03T11:58:41.783Z,1012.64
2018-06-03T12:00:35.254Z,1012.63
2018-06-03T12:01:35.277Z,1012.65
2018-06-03T12:03:28.759Z,1012.69
2018-06-03T12:04:28.781Z,1012.64
2018-06-03T12:06:22.267Z,1012.65
2018-06-03T12:07:22.289Z,1012.67
2018-06-03T12:09:15.772Z,1012.65
2018-06-03T12:10:15.791Z,1012.66
2018-06-03T12:12:09.273Z,1012.63
2018-06-03T12:13:09.303Z,1012.66
2018-06-03T12:15:02.786Z,1012.66
2018-06-03T12:16:02.803Z,1012.68
2018-06-03T12:17:56.286Z,1012.62
2018-06-03T12:18:56.305Z,1012.63
2018-06-03T12:20:50.315Z,1012.62
2018-06-03T12:21:49.905Z,1012.62
2018-06-03T12:23:43.379Z,1012.61
2018-06-03T12:24:43.407Z,1012.62
2018-06-03T12:26:36.875Z,1012.64
2018-06-03T12:27:36.899Z,1012.62
2018-06-03T12:29:30.439Z,1012.56
2018-06-03T12:30:30.404Z,1012.55
2018-06-03T12:32:23.900Z,1012.55
2018-06-03T12:33:23.918Z,1012.54
2018-06-03T12:35:21.676Z,1012.55
2018-06-03T12:36:21.751Z,1012.54
2018-06-03T12:38:15.829Z,1012.51
2018-06-03T12:39:15.593Z,1012.50
2018-06-03T12:41:08.978Z,1012.50
2018-06-03T12:42:09.004Z,1012.46
2018-06-03T12:44:06.621Z,1012.52
2018-06-03T12:45:06.659Z,1012.49
2018-06-03T12:46:59.643Z,1012.49
2018-06-03T12:47:59.656Z,1012.48
2018-06-03T12:49:53.206Z,1012.43
2018-06-03T12:50:52.718Z,1012.40
2018-06-03T12:52:46.726Z,1012.39
2018-06-03T12:53:46.313Z,1012.41
2018-06-03T12:55:39.806Z,1012.42
2018-06-03T12:56:39.818Z,1012.46
2018-06-03T12:58:33.377Z,1012.40
2018-06-03T12:59:33.396Z,1012.39
2018-06-03T13:01:26.998Z,1012.40
2018-06-03T13:02:26.947Z,1012.35
2018-06-03T13:04:20.430Z,1012.36
2018-06-03T13:05:20.448Z,1012.34
2018-06-03T13:07:14.297Z,1012.37
2018-06-03T13:08:14.316Z,1012.34
2018-06-03T13:10:07.812Z,1012.34
2018-06-03T13:11:07.829Z,1012.35
2018-06-03T13:13:01.312Z,1012.31
2018-06-03T13:14:01.335Z,1012.34
2018-06-03T13:15:55.826Z,1012.32
2018-06-03T13:16:55.849Z,1012.33
2018-06-03T13:18:49.348Z,1012.35
2018-06-03T13:19:49.355Z,1012.34
2018-06-03T13:21:42.899Z,1012.33
2018-06-03T13:22:42.860Z,1012.27
2018-06-03T13:24:36.390Z,1012.26
2018-06-03T13:25:36.389Z,1012.27
2018-06-03T13:27:33.907Z,1012.23
2018-06-03T13:28:33.960Z,1012.21
2018-06-03T13:30:27.412Z,1012.21
2018-06-03T13:31:27.452Z,1012.19
2018-06-03T13:33:20.909Z,1012.17
2018-06-03T13:34:20.934Z,1012.17
2018-06-03T13:36:14.413Z,1012.14
2018-06-03T13:37:14.432Z,1012.16
2018-06-03T13:39:07.916Z,1012.07
2018-06-03T13:40:07.938Z,1012.07
2018-06-03T13:42:01.662Z,1012.03
2018-06-03T13:43:01.564Z,1012.02
2018-06-03T13:44:55.140Z,1011.99
2018-06-03T13:45:55.078Z,1012.00
2018-06-03T13:47:48.560Z,1011.94
2018-06-03T13:48:48.583Z,1011.93
2018-06-03T13:50:46.106Z,1011.84
2018-06-03T13:51:46.131Z,1011.80
2018-06-03T13:53:39.734Z,1011.77
2018-06-03T13:54:39.902Z,1011.78
2018-06-03T13:56:33.239Z,1011.74
2018-06-03T13:57:33.264Z,1011.70
2018-06-03T13:59:30.991Z,1011.66
2018-06-03T14:00:30.808Z,1011.64
2018-06-03T14:02:24.294Z,1011.65
2018-06-03T14:03:24.313Z,1011.62
2018-06-03T14:05:18.318Z,1011.58
2018-06-03T14:06:17.817Z,1011.58
2018-06-03T14:08:11.512Z,1011.55
2018-06-03T14:09:11.484Z,1011.52
2018-06-03T14:11:05.001Z,1011.55
2018-06-03T14:12:04.961Z,1011.48
2018-06-03T14:13:58.446Z,1011.49
2018-06-03T14:14:58.465Z,1011.49
2018-06-03T14:16:52.018Z,1011.45
2018-06-03T14:17:51.971Z,1011.41
2018-06-03T14:19:45.630Z,1011.40
2018-06-03T14:20:45.775Z,1011.41
2018-06-03T14:22:39.178Z,1011.42
2018-06-03T14:23:39.143Z,1011.39
2018-06-03T14:25:33.635Z,1011.41
2018-06-03T14:26:33.657Z,1011.38
2018-06-03T14:28:27.138Z,1011.39
2018-06-03T14:29:27.163Z,1011.41
2018-06-03T14:31:20.644Z,1011.38
2018-06-03T14:32:20.667Z,1011.36
2018-06-03T14:34:14.152Z,1011.36
2018-06-03T14:35:14.173Z,1011.33
2018-06-03T14:37:07.647Z,1011.32
2018-06-03T14:38:07.671Z,1011.29
2018-06-03T14:40:01.155Z,1011.32
2018-06-03T14:41:01.179Z,1011.26
2018-06-03T14:42:54.658Z,1011.25
2018-06-03T14:43:54.680Z,1011.22
2018-06-03T14:45:48.165Z,1011.20
2018-06-03T14:46:48.184Z,1011.14
2018-06-03T14:48:42.177Z,1011.14
2018-06-03T14:49:42.192Z,1011.14
2018-06-03T14:51:35.677Z,1011.12
2018-06-03T14:52:35.700Z,1011.11
2018-06-03T14:54:33.220Z,1011.04
2018-06-03T14:55:33.281Z,1011.03
2018-06-03T14:57:26.736Z,1011.02
2018-06-03T14:58:28.697Z,1010.94
2018-06-03T15:00:24.230Z,1010.95
2018-06-03T15:01:24.298Z,1010.95
2018-06-03T15:03:18.260Z,1010.92
2018-06-03T15:04:17.769Z,1010.88
2018-06-03T15:06:11.244Z,1010.85
2018-06-03T15:07:11.264Z,1010.84
2018-06-03T15:09:04.737Z,1010.78
2018-06-03T15:10:04.760Z,1010.76
2018-06-03T15:12:02.320Z,1010.73
2018-06-03T15:13:02.345Z,1010.68
2018-06-03T15:14:55.858Z,1010.70
2018-06-03T15:15:55.879Z,1010.66
2018-06-03T15:17:49.363Z,1010.62
2018-06-03T15:18:49.389Z,1010.62
2018-06-03T15:20:42.897Z,1010.63
2018-06-03T15:21:42.911Z,1010.63
2018-06-03T15:23:36.402Z,1010.65
2018-06-03T15:24:36.427Z,1010.64
2018-06-03T15:26:29.912Z,1010.66
2018-06-03T15:27:29.940Z,1010.64
2018-06-03T15:29:23.425Z,1010.62
2018-06-03T15:30:23.452Z,1010.61
2018-06-03T15:32:16.441Z,1010.56
2018-06-03T15:33:16.466Z,1010.60
2018-06-03T15:35:10.031Z,1010.51
2018-06-03T15:36:09.973Z,1010.55
2018-06-03T15:38:03.455Z,1010.53
2018-06-03T15:39:03.478Z,1010.53
2018-06-03T15:40:56.952Z,1010.53
2018-06-03T15:41:56.977Z,1010.54
2018-06-03T15:43:50.492Z,1010.43
2018-06-03T15:44:50.486Z,1010.45
2018-06-03T15:46:43.969Z,1010.46
2018-06-03T15:47:43.990Z,1010.44
2018-06-03T15:49:36.987Z,1010.43
2018-06-03T15:50:37.012Z,1010.44
2018-06-03T15:52:30.495Z,1010.44
2018-06-03T15:53:30.524Z,1010.48
2018-06-03T15:55:24.014Z,1010.48
2018-06-03T15:56:24.026Z,1010.49
2018-06-03T15:58:17.509Z,1010.48
2018-06-03T15:59:17.533Z,1010.47
2018-06-03T16:01:11.017Z,1010.44
2018-06-03T16:02:11.040Z,1010.39
2018-06-03T16:04:05.047Z,1010.35
2018-06-03T16:05:04.594Z,1010.36
2018-06-03T16:06:58.031Z,1010.34
2018-06-03T16:07:58.104Z,1010.34
2018-06-03T16:09:51.540Z,1010.35
2018-06-03T16:10:51.563Z,1010.31
2018-06-03T16:12:49.100Z,1010.27
2018-06-03T16:13:49.119Z,1010.30
2018-06-03T16:15:42.611Z,1010.29
2018-06-03T16:16:42.635Z,1010.28
2018-06-03T16:18:36.125Z,1010.23
2018-06-03T16:19:36.143Z,1010.21
2018-06-03T16:21:29.622Z,1010.20
2018-06-03T16:22:29.645Z,1010.20
2018-06-03T16:24:23.264Z,1010.17
2018-06-03T16:25:23.148Z,1010.21
2018-06-03T16:27:16.634Z,1010.16
2018-06-03T16:28:16.713Z,1010.18
2018-06-03T16:30:10.126Z,1010.17
2018-06-03T16:31:10.153Z,1010.11
2018-06-03T16:33:03.716Z,1010.11
2018-06-03T16:34:03.650Z,1010.13
2018-06-03T16:35:57.116Z,1010.10
2018-06-03T16:36:57.174Z,1010.07
2018-06-03T16:38:55.392Z,1010.06
2018-06-03T16:39:55.464Z,1010.08
2018-06-03T16:41:48.898Z,1010.04
2018-06-03T16:42:48.919Z,1010.03
2018-06-03T16:44:46.499Z,1010.04
2018-06-03T16:45:46.524Z,1010.07
2018-06-03T16:47:40.004Z,1010.03
2018-06-03T16:48:40.043Z,1010.05
2018-06-03T16:50:33.615Z,1010.07
2018-06-03T16:51:33.638Z,1010.05
2018-06-03T16:53:27.112Z,1010.02
2018-06-03T16:54:27.161Z,1010.03
2018-06-03T16:56:20.622Z,1010.09
2018-06-03T16:57:20.639Z,1010.04
2018-06-03T16:59:18.193Z,1010.04
2018-06-03T17:00:18.216Z,1010.07
2018-06-03T17:02:11.693Z,1010.02
2018-06-03T17:03:11.719Z,1009.99
2018-06-03T17:05:05.229Z,1010.02
2018-06-03T17:06:05.243Z,1010.00
2018-06-03T17:07:58.722Z,1009.96
2018-06-03T17:08:58.746Z,1009.96
2018-06-03T17:10:52.754Z,1009.92
2018-06-03T17:11:52.252Z,1009.93
2018-06-03T17:13:45.736Z,1009.93
2018-06-03T17:14:45.867Z,1009.93
2018-06-03T17:16:39.265Z,1009.94
2018-06-03T17:17:39.274Z,1009.93
2018-06-03T17:19:32.747Z,1009.92
2018-06-03T17:20:32.817Z,1009.93
2018-06-03T17:22:26.257Z,1009.91
2018-06-03T17:23:26.283Z,1009.92
2018-06-03T17:25:19.768Z,1009.90
2018-06-03T17:26:19.789Z,1009.88
2018-06-03T17:28:13.269Z,1009.90
2018-06-03T17:29:13.290Z,1009.90
2018-06-03T17:31:10.899Z,1009.91